Time;durP1;ratioP1;P1;durP2;ratioP2;P2;SDS_P1;SDS_P2;PMS_P1;PMS_P2;Temp;Humidity;BMP_temperature;BMP_pressure;BME280_temperature;BME280_humidity;BME280_pressure;Samples;Min_cycle;Max_cycle;Signal;HPM_P1;HPM_P2
2023/02/28 00:02:07;;;;;;;3.70;3.00;;;;;;;;;;5071697;28;20601;-89
2023/02/28 00:05:14;;;;;;;3.50;2.60;;;;;;;;;;5083111;28;20545;-89
2023/02/28 00:08:18;;;;;;;3.33;2.57;;;;;;;;;;5083053;28;20616;-88
2023/02/28 00:11:22;;;;;;;4.33;2.63;;;;;;;;;;5059991;28;20545;-88
2023/02/28 00:14:26;;;;;;;4.10;2.90;;;;;;;;;;5071575;28;20597;-88
2023/02/28 00:17:31;;;;;;;7.13;3.00;;;;;;;;;;5071625;28;20552;-88
2023/02/28 00:20:35;;;;;;;4.03;2.87;;;;;;;;;;5083047;28;20916;-88
2023/02/28 00:23:39;;;;;;;6.60;2.80;;;;;;;;;;5071485;28;20897;-89
2023/02/28 00:26:43;;;;;;;3.87;2.57;;;;;;;;;;5071114;28;20553;-89
2023/02/28 00:29:47;;;;;;;4.67;3.20;;;;;;;;;;5071173;28;20628;-88
2023/02/28 00:32:51;;;;;;;4.77;2.80;;;;;;;;;;5070907;28;21096;-88
2023/02/28 00:36:03;;;;;;;6.63;3.40;;;;;;;;;;5071297;28;20549;-89
2023/02/28 00:39:07;;;;;;;3.73;2.73;;;;;;;;;;5082413;28;20640;-88
2023/02/28 00:42:11;;;;;;;4.70;3.23;;;;;;;;;;5059596;28;20620;-89
2023/02/28 00:45:15;;;;;;;3.73;2.70;;;;;;;;;;5071082;28;20553;-89
2023/02/28 00:48:19;;;;;;;4.57;2.70;;;;;;;;;;5071063;28;21201;-88
2023/02/28 00:51:24;;;;;;;5.70;2.90;;;;;;;;;;5070926;28;20553;-89
2023/02/28 00:54:28;;;;;;;4.07;2.87;;;;;;;;;;5070761;28;20541;-88
2023/02/28 00:57:33;;;;;;;6.83;3.57;;;;;;;;;;5059071;28;20557;-88
2023/02/28 01:00:42;;;;;;;6.50;3.20;;;;;;;;;;5082967;28;20593;-89
2023/02/28 01:03:49;;;;;;;4.40;3.20;;;;;;;;;;5082077;28;20546;-89
2023/02/28 01:06:53;;;;;;;5.10;3.10;;;;;;;;;;5059620;28;20596;-89
2023/02/28 01:09:57;;;;;;;4.57;2.93;;;;;;;;;;5070346;28;20620;-88
2023/02/28 01:13:03;;;;;;;6.13;3.23;;;;;;;;;;5059325;28;20588;-87
2023/02/28 01:16:07;;;;;;;5.40;3.30;;;;;;;;;;5070638;28;20984;-86
2023/02/28 01:19:12;;;;;;;6.10;3.40;;;;;;;;;;5059140;28;20837;-89
2023/02/28 01:22:16;;;;;;;4.73;3.07;;;;;;;;;;5082128;28;20597;-88
2023/02/28 01:25:21;;;;;;;4.47;3.20;;;;;;;;;;5059008;28;20550;-89
2023/02/28 01:28:26;;;;;;;4.50;2.97;;;;;;;;;;5070277;28;20621;-87
2023/02/28 01:31:30;;;;;;;3.00;2.67;;;;;;;;;;5070229;28;20549;-87
2023/02/28 01:34:35;;;;;;;6.37;3.40;;;;;;;;;;5070488;28;20545;-87
2023/02/28 01:37:41;;;;;;;5.63;3.20;;;;;;;;;;5070839;28;20553;-88
2023/02/28 01:40:45;;;;;;;3.83;3.17;;;;;;;;;;5058697;28;20541;-88
2023/02/28 01:43:49;;;;;;;5.43;3.23;;;;;;;;;;5081438;28;20597;-87
2023/02/28 01:46:53;;;;;;;5.70;3.30;;;;;;;;;;5070042;28;20549;-87
2023/02/28 01:49:59;;;;;;;5.60;3.67;;;;;;;;;;5070161;28;20616;-87
2023/02/28 01:53:08;;;;;;;6.90;3.17;;;;;;;;;;5058736;28;20588;-89
2023/02/28 01:56:20;;;;;;;4.10;3.03;;;;;;;;;;5069943;28;20605;-87
2023/02/28 01:59:46;;;;;;;6.47;3.10;;;;;;;;;;5081335;28;20621;-88
2023/02/28 02:02:55;;;;;;;5.33;3.30;;;;;;;;;;5069754;28;20605;-89
2023/02/28 02:06:00;;;;;;;4.63;3.03;;;;;;;;;;5081252;28;20596;-88
2023/02/28 02:09:04;;;;;;;5.77;3.70;;;;;;;;;;5058361;28;20628;-88
2023/02/28 02:12:24;;;;;;;5.83;3.17;;;;;;;;;;5069618;28;20586;-87
2023/02/28 02:15:42;;;;;;;4.13;3.13;;;;;;;;;;5069860;28;20877;-85
2023/02/28 02:18:54;;;;;;;6.83;3.60;;;;;;;;;;5058172;28;20625;-88
2023/02/28 02:22:19;;;;;;;7.47;3.40;;;;;;;;;;5069154;28;20613;-89
2023/02/28 02:25:49;;;;;;;6.90;3.17;;;;;;;;;;5081093;28;20542;-88
2023/02/28 02:28:53;;;;;;;5.30;3.57;;;;;;;;;;5058039;28;20620;-87
2023/02/28 02:32:07;;;;;;;5.27;3.23;;;;;;;;;;5057992;28;20545;-87
2023/02/28 02:35:25;;;;;;;5.00;3.30;;;;;;;;;;5058045;28;20553;-87
2023/02/28 02:38:45;;;;;;;4.60;3.23;;;;;;;;;;5069310;28;21209;-88
2023/02/28 02:41:54;;;;;;;6.57;3.53;;;;;;;;;;5069343;28;20600;-88
2023/02/28 02:45:04;;;;;;;6.30;3.67;;;;;;;;;;5081405;28;20557;-88
2023/02/28 02:48:13;;;;;;;6.00;3.77;;;;;;;;;;5069595;28;20549;-87
2023/02/28 02:51:20;;;;;;;6.17;3.43;;;;;;;;;;5080725;28;20549;-89
2023/02/28 02:54:39;;;;;;;5.13;3.57;;;;;;;;;;5069503;28;20549;-89
2023/02/28 02:57:55;;;;;;;5.23;3.43;;;;;;;;;;5057754;28;20554;-89
2023/02/28 03:01:02;;;;;;;4.87;3.60;;;;;;;;;;5069267;28;20562;-89
2023/02/28 03:04:14;;;;;;;5.70;3.33;;;;;;;;;;5069020;28;20612;-89
2023/02/28 03:07:18;;;;;;;5.57;3.03;;;;;;;;;;5080597;28;20549;-88
2023/02/28 03:10:34;;;;;;;4.77;3.30;;;;;;;;;;5069363;28;20557;-89
2023/02/28 03:13:54;;;;;;;6.70;3.93;;;;;;;;;;5069088;28;20546;-88
2023/02/28 03:17:23;;;;;;;5.47;3.70;;;;;;;;;;5057787;28;20549;-89
2023/02/28 03:20:38;;;;;;;4.43;3.33;;;;;;;;;;5068986;28;20549;-89
2023/02/28 03:23:52;;;;;;;5.20;3.47;;;;;;;;;;5068696;28;20602;-88
2023/02/28 03:27:17;;;;;;;4.87;3.67;;;;;;;;;;5068835;28;20549;-89
2023/02/28 03:30:53;;;;;;;4.60;3.53;;;;;;;;;;5092995;28;20549;-89
2023/02/28 03:34:12;;;;;;;5.97;3.40;;;;;;;;;;5084145;28;20542;-89
2023/02/28 03:37:20;;;;;;;5.67;3.63;;;;;;;;;;5072447;28;20596;-88
2023/02/28 03:40:33;;;;;;;4.10;3.17;;;;;;;;;;5072269;28;20545;-88
2023/02/28 03:44:03;;;;;;;5.03;3.30;;;;;;;;;;5062690;28;20640;-89
2023/02/28 03:47:36;;;;;;;6.20;3.57;;;;;;;;;;5072192;28;20937;-88
2023/02/28 03:50:44;;;;;;;5.47;3.50;;;;;;;;;;5072050;28;20549;-88
2023/02/28 03:53:57;;;;;;;5.50;3.83;;;;;;;;;;5071848;28;20596;-88
2023/02/28 03:57:15;;;;;;;5.20;3.70;;;;;;;;;;5083497;28;20549;-88
2023/02/28 04:00:24;;;;;;;5.97;4.10;;;;;;;;;;5071800;28;20968;-88
2023/02/28 04:03:29;;;;;;;6.70;3.90;;;;;;;;;;5083463;28;20596;-88
2023/02/28 04:06:34;;;;;;;6.43;3.80;;;;;;;;;;5071861;28;20557;-87
2023/02/28 04:09:38;;;;;;;6.87;4.03;;;;;;;;;;5060435;28;20616;-88
2023/02/28 04:12:42;;;;;;;7.70;4.20;;;;;;;;;;5083460;28;20541;-86
2023/02/28 04:15:46;;;;;;;4.97;4.00;;;;;;;;;;5071777;28;20549;-87
2023/02/28 04:18:51;;;;;;;7.33;4.50;;;;;;;;;;5071763;28;20619;-86
2023/02/28 04:21:55;;;;;;;10.33;4.90;;;;;;;;;;5071992;28;20545;-88
2023/02/28 04:24:59;;;;;;;8.63;4.67;;;;;;;;;;5062335;28;20592;-88
2023/02/28 04:28:04;;;;;;;8.53;4.57;;;;;;;;;;5085350;28;20549;-87
2023/02/28 04:31:09;;;;;;;5.27;4.10;;;;;;;;;;5073284;28;20901;-86
2023/02/28 04:34:13;;;;;;;6.97;4.57;;;;;;;;;;5073753;28;20897;-87
2023/02/28 04:37:17;;;;;;;6.40;4.20;;;;;;;;;;5073194;28;20545;-87
2023/02/28 04:40:21;;;;;;;7.23;4.43;;;;;;;;;;5073071;28;20620;-87
2023/02/28 04:43:27;;;;;;;8.77;5.73;;;;;;;;;;5072343;28;20608;-87
2023/02/28 04:46:31;;;;;;;8.30;4.40;;;;;;;;;;5072849;28;20550;-87
2023/02/28 04:49:36;;;;;;;7.00;4.73;;;;;;;;;;5072832;28;20620;-88
2023/02/28 04:52:40;;;;;;;6.53;4.60;;;;;;;;;;5072214;28;20557;-88
2023/02/28 04:55:44;;;;;;;8.00;4.77;;;;;;;;;;5060499;28;20553;-89
2023/02/28 04:58:50;;;;;;;7.50;4.57;;;;;;;;;;5059687;28;20616;-87
2023/02/28 05:01:54;;;;;;;6.73;4.67;;;;;;;;;;5071652;28;20600;-88
2023/02/28 05:04:59;;;;;;;7.87;4.73;;;;;;;;;;5071404;28;20545;-89
2023/02/28 05:08:05;;;;;;;7.67;4.80;;;;;;;;;;5071927;28;20545;-87
2023/02/28 05:11:15;;;;;;;8.03;5.13;;;;;;;;;;5060181;28;20553;-88
2023/02/28 05:14:19;;;;;;;9.33;5.30;;;;;;;;;;5082382;28;20553;-88
2023/02/28 05:17:23;;;;;;;8.27;4.97;;;;;;;;;;5070655;28;20545;-88
2023/02/28 05:20:27;;;;;;;11.57;4.97;;;;;;;;;;5070806;28;20557;-88
2023/02/28 05:23:32;;;;;;;7.30;5.40;;;;;;;;;;5070767;28;20653;-89
2023/02/28 05:26:40;;;;;;;8.17;5.57;;;;;;;;;;5070716;28;21159;-88
2023/02/28 05:29:44;;;;;;;6.37;5.17;;;;;;;;;;5082418;28;20624;-88
2023/02/28 05:32:50;;;;;;;7.63;4.90;;;;;;;;;;5082065;28;20545;-89
2023/02/28 05:35:55;;;;;;;8.57;5.33;;;;;;;;;;5081761;28;20550;-87
2023/02/28 05:38:59;;;;;;;10.13;5.90;;;;;;;;;;5070188;28;20632;-88
2023/02/28 05:42:04;;;;;;;8.63;5.67;;;;;;;;;;5070412;28;20566;-88
2023/02/28 05:45:09;;;;;;;10.17;6.03;;;;;;;;;;5070307;28;20546;-88
2023/02/28 05:51:43;;;;;;;8.23;5.90;;;;;;;;;;5069926;28;20553;-88
2023/02/28 05:54:48;;;;;;;8.20;5.47;;;;;;;;;;5093957;28;20545;-88
2023/02/28 05:57:55;;;;;;;9.63;5.63;;;;;;;;;;5070016;28;20579;-88
2023/02/28 06:01:18;;;;;;;8.93;5.27;;;;;;;;;;5058384;28;20553;-89
2023/02/28 06:04:22;;;;;;;7.87;5.10;;;;;;;;;;5069870;28;20605;-88
2023/02/28 06:07:26;;;;;;;7.20;5.30;;;;;;;;;;5081183;28;20604;-87
2023/02/28 06:10:30;;;;;;;10.30;5.97;;;;;;;;;;5069895;28;20924;-87
2023/02/28 06:13:34;;;;;;;10.13;5.90;;;;;;;;;;5069372;28;21217;-86
2023/02/28 06:16:39;;;;;;;11.27;6.40;;;;;;;;;;5058204;28;20615;-86
2023/02/28 06:19:43;;;;;;;8.87;6.43;;;;;;;;;;5069821;28;20635;-87
2023/02/28 06:22:47;;;;;;;11.27;6.17;;;;;;;;;;5081167;28;20917;-88
2023/02/28 06:25:53;;;;;;;9.03;5.70;;;;;;;;;;5081010;28;20564;-87
2023/02/28 06:28:57;;;;;;;9.60;5.83;;;;;;;;;;5069848;28;20620;-88
2023/02/28 06:32:01;;;;;;;11.67;5.93;;;;;;;;;;5093116;28;20545;-89
2023/02/28 06:35:06;;;;;;;14.07;7.07;;;;;;;;;;5081401;28;20568;-88
2023/02/28 06:38:10;;;;;;;14.77;7.60;;;;;;;;;;5069364;28;21077;-88
2023/02/28 06:41:14;;;;;;;10.03;6.23;;;;;;;;;;5080937;28;20564;-87
2023/02/28 06:44:19;;;;;;;11.80;5.83;;;;;;;;;;5059260;28;20734;-88
2023/02/28 06:47:25;;;;;;;10.03;5.87;;;;;;;;;;5069681;28;20679;-89
2023/02/28 06:50:32;;;;;;;17.33;6.60;;;;;;;;;;5069204;28;20557;-89
2023/02/28 06:54:35;;;;;;;13.83;6.87;;;;;;;;;;5070874;28;20560;-89
2023/02/28 06:57:39;;;;;;;16.33;7.27;;;;;;;;;;5069253;28;20555;-88
2023/02/28 07:00:45;;;;;;;13.20;6.40;;;;;;;;;;5057696;28;20565;-88
2023/02/28 07:03:52;;;;;;;13.73;6.93;;;;;;;;;;5080506;28;20973;-88
2023/02/28 07:06:56;;;;;;;13.70;6.67;;;;;;;;;;5059371;28;20576;-88
2023/02/28 07:10:00;;;;;;;15.67;8.00;;;;;;;;;;5084462;28;20635;-87
2023/02/28 07:13:06;;;;;;;9.93;5.97;;;;;;;;;;5072486;28;20633;-88
2023/02/28 07:16:11;;;;;;;16.60;7.80;;;;;;;;;;5072479;28;20545;-87
2023/02/28 07:19:15;;;;;;;12.33;6.53;;;;;;;;;;5063382;28;20636;-87
2023/02/28 07:22:19;;;;;;;16.43;7.60;;;;;;;;;;5077297;28;20552;-89
2023/02/28 07:25:25;;;;;;;10.50;5.93;;;;;;;;;;5073731;28;21201;-89
2023/02/28 07:28:29;;;;;;;11.97;6.97;;;;;;;;;;5076355;28;20631;-87
2023/02/28 07:31:34;;;;;;;12.50;6.93;;;;;;;;;;5077550;28;20554;-88
2023/02/28 07:34:37;;;;;;;13.87;6.60;;;;;;;;;;5072415;28;20554;-87
2023/02/28 07:37:42;;;;;;;10.57;6.07;;;;;;;;;;5061220;28;20556;-87
2023/02/28 07:40:46;;;;;;;13.30;6.70;;;;;;;;;;5072775;28;20556;-87
2023/02/28 07:43:55;;;;;;;10.03;6.20;;;;;;;;;;5072504;28;20616;-87
2023/02/28 07:46:58;;;;;;;11.17;7.13;;;;;;;;;;5072191;28;20553;-87
2023/02/28 07:50:03;;;;;;;20.50;7.50;;;;;;;;;;5083834;28;20710;-87
2023/02/28 07:53:07;;;;;;;10.27;6.67;;;;;;;;;;5060587;28;20561;-89
2023/02/28 07:56:11;;;;;;;12.37;6.60;;;;;;;;;;5095105;28;20552;-89
2023/02/28 07:59:15;;;;;;;9.43;6.87;;;;;;;;;;5071862;28;20631;-87
2023/02/28 08:02:19;;;;;;;11.53;6.70;;;;;;;;;;5071972;28;21110;-88
2023/02/28 08:05:23;;;;;;;12.17;7.00;;;;;;;;;;5071791;28;21225;-87
2023/02/28 08:08:31;;;;;;;12.93;7.40;;;;;;;;;;5073889;28;20624;-87
2023/02/28 08:11:36;;;;;;;9.50;5.97;;;;;;;;;;5060381;28;20550;-89
2023/02/28 08:14:40;;;;;;;14.40;7.50;;;;;;;;;;5071835;28;20596;-89
2023/02/28 08:17:44;;;;;;;11.23;6.57;;;;;;;;;;5070959;28;20553;-87
2023/02/28 08:20:48;;;;;;;12.70;6.83;;;;;;;;;;5071556;28;20579;-89
2023/02/28 08:23:53;;;;;;;9.70;5.70;;;;;;;;;;5071671;28;20601;-87
2023/02/28 08:26:57;;;;;;;10.47;5.70;;;;;;;;;;5071829;28;20553;-87
2023/02/28 08:30:02;;;;;;;14.03;7.30;;;;;;;;;;5071438;28;20620;-87
2023/02/28 08:33:18;;;;;;;10.97;6.30;;;;;;;;;;5071930;28;20554;-89
2023/02/28 08:36:28;;;;;;;12.20;6.07;;;;;;;;;;5071708;28;20545;-88
2023/02/28 08:39:36;;;;;;;12.23;7.03;;;;;;;;;;5082715;28;21043;-89
2023/02/28 08:42:40;;;;;;;9.00;5.53;;;;;;;;;;5082802;28;20549;-89
2023/02/28 08:45:44;;;;;;;11.67;6.50;;;;;;;;;;5071315;28;21170;-89
2023/02/28 08:48:52;;;;;;;9.23;6.37;;;;;;;;;;5070975;28;20625;-89
2023/02/28 08:51:57;;;;;;;8.97;6.10;;;;;;;;;;5070896;28;20550;-87
2023/02/28 08:55:01;;;;;;;11.13;6.17;;;;;;;;;;5071062;28;20549;-87
2023/02/28 08:58:05;;;;;;;10.37;6.17;;;;;;;;;;5070985;28;20549;-87
2023/02/28 09:01:11;;;;;;;10.17;6.10;;;;;;;;;;5071356;28;20553;-87
2023/02/28 09:04:15;;;;;;;9.67;6.70;;;;;;;;;;5082158;28;20640;-88
2023/02/28 09:07:19;;;;;;;10.93;6.27;;;;;;;;;;5070602;28;20596;-88
2023/02/28 09:10:23;;;;;;;14.67;6.53;;;;;;;;;;5082013;28;20975;-87
2023/02/28 09:13:29;;;;;;;11.03;6.43;;;;;;;;;;5070813;28;21154;-87
2023/02/28 09:16:34;;;;;;;8.50;6.13;;;;;;;;;;5070477;28;20549;-87
2023/02/28 09:19:38;;;;;;;9.03;6.23;;;;;;;;;;5070583;28;20620;-87
2023/02/28 09:22:42;;;;;;;11.67;6.47;;;;;;;;;;5070472;28;20549;-87
2023/02/28 09:25:56;;;;;;;11.50;6.03;;;;;;;;;;5070081;28;20640;-87
2023/02/28 09:29:02;;;;;;;8.23;6.00;;;;;;;;;;5069104;28;20956;-87
2023/02/28 09:32:06;;;;;;;10.43;5.70;;;;;;;;;;5058104;28;20953;-87
2023/02/28 09:35:14;;;;;;;9.83;5.70;;;;;;;;;;5069064;28;21063;-87
2023/02/28 09:38:18;;;;;;;8.90;5.67;;;;;;;;;;5069111;28;20933;-87
2023/02/28 09:41:27;;;;;;;9.87;6.17;;;;;;;;;;5069208;28;20553;-87
2023/02/28 09:44:36;;;;;;;11.60;6.47;;;;;;;;;;5069334;28;21151;-87
2023/02/28 09:47:44;;;;;;;10.93;6.67;;;;;;;;;;5068997;28;20558;-87
2023/02/28 09:50:57;;;;;;;8.47;5.77;;;;;;;;;;5068965;28;20546;-86
2023/02/28 09:54:02;;;;;;;8.90;5.63;;;;;;;;;;5069196;28;20557;-87
2023/02/28 09:57:25;;;;;;;9.53;6.33;;;;;;;;;;5068868;28;20553;-89
2023/02/28 10:00:38;;;;;;;15.47;6.53;;;;;;;;;;5068877;28;20545;-88
2023/02/28 10:03:49;;;;;;;12.57;6.23;;;;;;;;;;5080436;28;20589;-89
2023/02/28 10:06:54;;;;;;;9.63;6.40;;;;;;;;;;5068800;28;20589;-89
2023/02/28 10:10:03;;;;;;;9.20;6.53;;;;;;;;;;5068763;28;21190;-88
2023/02/28 10:13:21;;;;;;;11.23;6.10;;;;;;;;;;5080924;28;21202;-87
2023/02/28 10:16:34;;;;;;;11.63;6.23;;;;;;;;;;5069730;28;20549;-87
2023/02/28 10:20:07;;;;;;;8.03;5.77;;;;;;;;;;5069176;28;20620;-88
2023/02/28 10:23:20;;;;;;;9.70;5.93;;;;;;;;;;5058290;28;20553;-89
2023/02/28 10:26:27;;;;;;;9.20;6.17;;;;;;;;;;5080928;28;20648;-89
2023/02/28 10:29:33;;;;;;;10.03;5.80;;;;;;;;;;5069749;28;20620;-88
2023/02/28 10:32:38;;;;;;;8.43;5.87;;;;;;;;;;5069404;28;20183;-89
2023/02/28 10:35:42;;;;;;;8.37;5.47;;;;;;;;;;5081162;28;20175;-88
2023/02/28 10:38:47;;;;;;;10.80;6.17;;;;;;;;;;5080732;28;20230;-89
2023/02/28 10:41:51;;;;;;;12.13;6.83;;;;;;;;;;5082515;28;20545;-89
2023/02/28 10:45:16;;;;;;;9.57;6.60;;;;;;;;;;5073571;28;20211;-89
2023/02/28 10:48:20;;;;;;;12.23;7.40;;;;;;;;;;5073646;28;20214;-87
2023/02/28 10:51:24;;;;;;;15.23;7.87;;;;;;;;;;5061752;28;20198;-89
2023/02/28 10:54:35;;;;;;;11.23;6.93;;;;;;;;;;5073095;28;20542;-89
2023/02/28 10:57:38;;;;;;;9.30;6.07;;;;;;;;;;5073302;28;20183;-89
2023/02/28 11:00:43;;;;;;;9.93;6.03;;;;;;;;;;5061656;28;20634;-89
2023/02/28 11:03:48;;;;;;;8.73;5.83;;;;;;;;;;5061640;28;20175;-89
2023/02/28 11:07:01;;;;;;;9.17;6.30;;;;;;;;;;5072959;28;20175;-89
2023/02/28 11:10:06;;;;;;;11.20;6.33;;;;;;;;;;5073050;28;20214;-89
2023/02/28 11:13:18;;;;;;;9.87;6.00;;;;;;;;;;5072742;28;20195;-89
2023/02/28 11:16:33;;;;;;;9.73;6.23;;;;;;;;;;5084242;28;20179;-88
2023/02/28 11:19:45;;;;;;;11.30;6.67;;;;;;;;;;5084376;28;20215;-88
2023/02/28 11:22:51;;;;;;;11.37;6.70;;;;;;;;;;5083958;28;20179;-87
2023/02/28 11:25:59;;;;;;;10.70;6.33;;;;;;;;;;5084264;28;20206;-89
2023/02/28 11:29:19;;;;;;;9.53;6.40;;;;;;;;;;5073100;28;20219;-87
2023/02/28 11:32:28;;;;;;;11.53;6.63;;;;;;;;;;5061278;28;20179;-87
2023/02/28 11:35:38;;;;;;;8.37;5.70;;;;;;;;;;5072887;28;20174;-87
2023/02/28 11:38:43;;;;;;;10.77;6.60;;;;;;;;;;5061425;28;20222;-87
2023/02/28 11:42:14;;;;;;;14.27;7.40;;;;;;;;;;5061532;28;20519;-87
2023/02/28 11:45:31;;;;;;;16.07;7.63;;;;;;;;;;5061837;28;20207;-87
2023/02/28 11:48:48;;;;;;;7.90;5.67;;;;;;;;;;5061141;28;20222;-88
2023/02/28 11:51:55;;;;;;;7.60;6.00;;;;;;;;;;5083202;28;20179;-88
2023/02/28 11:55:15;;;;;;;10.53;7.17;;;;;;;;;;5061368;28;20179;-87
2023/02/28 11:58:32;;;;;;;12.43;6.93;;;;;;;;;;5060505;28;20222;-89
2023/02/28 12:02:04;;;;;;;9.87;6.73;;;;;;;;;;5072116;28;20180;-89
2023/02/28 12:05:24;;;;;;;8.03;6.07;;;;;;;;;;5071882;28;20214;-89
2023/02/28 12:08:42;;;;;;;8.40;6.37;;;;;;;;;;5071885;28;20222;-87
2023/02/28 12:11:57;;;;;;;9.00;6.90;;;;;;;;;;5071549;28;20190;-88
2023/02/28 12:15:13;;;;;;;10.43;6.90;;;;;;;;;;5072136;28;20172;-87
2023/02/28 12:18:34;;;;;;;15.20;6.77;;;;;;;;;;5060886;28;20179;-88
2023/02/28 12:22:16;;;;;;;10.77;6.27;;;;;;;;;;5072310;28;20183;-87
2023/02/28 12:25:32;;;;;;;7.43;5.40;;;;;;;;;;5056430;28;20223;-87
2023/02/28 12:28:53;;;;;;;9.27;5.77;;;;;;;;;;5072327;28;20218;-87
2023/02/28 12:32:11;;;;;;;7.60;6.17;;;;;;;;;;5071978;28;20638;-87
2023/02/28 12:35:32;;;;;;;7.67;5.83;;;;;;;;;;5071675;28;20180;-89
2023/02/28 12:38:59;;;;;;;7.73;5.97;;;;;;;;;;5082574;28;20227;-89
2023/02/28 12:42:12;;;;;;;8.90;6.80;;;;;;;;;;5083127;28;20188;-89
2023/02/28 12:45:51;;;;;;;8.83;5.67;;;;;;;;;;5071622;28;20211;-89
2023/02/28 12:48:57;;;;;;;13.03;5.33;;;;;;;;;;5071207;28;20214;-83
2023/02/28 12:52:03;;;;;;;10.07;6.83;;;;;;;;;;5067228;28;20191;-82
2023/02/28 12:55:25;;;;;;;10.07;5.90;;;;;;;;;;5060734;28;20195;-86
2023/02/28 12:58:59;;;;;;;9.97;6.37;;;;;;;;;;5051561;28;20219;-87
2023/02/28 13:02:41;;;;;;;10.57;6.60;;;;;;;;;;5062143;28;20195;-88
2023/02/28 13:06:07;;;;;;;8.20;6.13;;;;;;;;;;5061031;28;20223;-86
2023/02/28 13:09:15;;;;;;;11.37;6.20;;;;;;;;;;5050707;28;20215;-87
2023/02/28 13:12:22;;;;;;;10.93;6.83;;;;;;;;;;5049907;28;20670;-87
2023/02/28 13:15:28;;;;;;;12.23;6.63;;;;;;;;;;5038564;28;20191;-88
2023/02/28 13:18:37;;;;;;;9.37;6.53;;;;;;;;;;5050429;28;20211;-87
2023/02/28 13:21:47;;;;;;;8.67;6.40;;;;;;;;;;5050739;28;20184;-87
2023/02/28 13:24:56;;;;;;;7.43;6.07;;;;;;;;;;5050206;28;20195;-86
2023/02/28 13:28:03;;;;;;;8.83;6.40;;;;;;;;;;5065737;28;20191;-86
2023/02/28 13:31:08;;;;;;;7.97;5.83;;;;;;;;;;5070175;28;20187;-86
2023/02/28 13:34:14;;;;;;;9.43;6.27;;;;;;;;;;5059017;28;20179;-85
2023/02/28 13:37:22;;;;;;;12.30;6.97;;;;;;;;;;5058497;28;20198;-89
2023/02/28 13:40:36;;;;;;;9.37;6.43;;;;;;;;;;5058841;28;20175;-88
2023/02/28 13:44:23;;;;;;;9.20;6.37;;;;;;;;;;5058628;28;20191;-88
2023/02/28 13:47:35;;;;;;;8.50;6.10;;;;;;;;;;5058623;28;20187;-85
2023/02/28 13:50:41;;;;;;;11.07;7.13;;;;;;;;;;5058866;28;20179;-88
2023/02/28 13:53:59;;;;;;;9.97;6.57;;;;;;;;;;5058282;28;20199;-88
2023/02/28 14:01:31;;;;;;;11.37;6.40;;;;;;;;;;5069321;28;20540;-83
2023/02/28 14:10:13;;;;;;;9.07;6.33;;;;;;;;;;5093942;28;20226;-88
2023/02/28 14:13:25;;;;;;;12.50;6.60;;;;;;;;;;5080738;28;20669;-88
2023/02/28 14:16:39;;;;;;;10.00;6.97;;;;;;;;;;5058983;28;20178;-84
2023/02/28 14:19:49;;;;;;;11.83;6.37;;;;;;;;;;5072557;28;20695;-84
2023/02/28 14:23:12;;;;;;;9.73;6.47;;;;;;;;;;5058618;28;20634;-86
2023/02/28 14:26:26;;;;;;;9.87;6.20;;;;;;;;;;5071325;28;20555;-85
2023/02/28 14:33:54;;;;;;;13.13;7.00;;;;;;;;;;5081683;28;20171;-90
2023/02/28 14:37:07;;;;;;;9.37;5.93;;;;;;;;;;5080730;28;20178;-91
2023/02/28 14:40:52;;;;;;;9.80;6.30;;;;;;;;;;5093173;28;20631;-89
2023/02/28 14:44:27;;;;;;;9.80;6.37;;;;;;;;;;5093035;28;20186;-88
2023/02/28 14:47:34;;;;;;;10.80;6.67;;;;;;;;;;5068656;28;20210;-88
2023/02/28 15:25:43;;;;;;;10.20;6.70;;;;;;;;;;4772501;30;20270;-87
2023/02/28 15:28:54;;;;;;;10.83;7.10;;;;;;;;;;4765905;30;20226;-88
2023/02/28 15:32:08;;;;;;;12.87;7.33;;;;;;;;;;4755424;30;20191;-88
2023/02/28 15:35:25;;;;;;;15.00;8.30;;;;;;;;;;4754928;30;20560;-88
2023/02/28 15:38:34;;;;;;;10.33;6.63;;;;;;;;;;4753800;30;20222;-88
2023/02/28 15:41:38;;;;;;;12.50;7.20;;;;;;;;;;4753352;30;20206;-86
2023/02/28 15:44:57;;;;;;;13.70;7.37;;;;;;;;;;4753344;30;20536;-87
2023/02/28 15:48:39;;;;;;;8.17;6.27;;;;;;;;;;4753043;30;20644;-88
2023/02/28 15:52:19;;;;;;;11.73;7.10;;;;;;;;;;4766499;30;20186;-87
2023/02/28 15:55:29;;;;;;;10.10;6.33;;;;;;;;;;4753557;30;20198;-87
2023/02/28 15:58:45;;;;;;;8.90;6.50;;;;;;;;;;4753137;30;20225;-87
2023/02/28 16:02:20;;;;;;;10.73;6.97;;;;;;;;;;4752905;30;20190;-87
2023/02/28 16:05:42;;;;;;;12.90;8.40;;;;;;;;;;4752603;30;20186;-87
2023/02/28 16:08:48;;;;;;;11.67;7.23;;;;;;;;;;4740605;30;20585;-87
2023/02/28 16:11:59;;;;;;;11.90;6.70;;;;;;;;;;4735901;30;20545;-87
2023/02/28 16:15:28;;;;;;;9.07;6.70;;;;;;;;;;4725276;30;20510;-87
2023/02/28 16:18:42;;;;;;;15.27;7.10;;;;;;;;;;4745291;30;20218;-88
2023/02/28 16:21:48;;;;;;;13.17;8.10;;;;;;;;;;4735224;30;20215;-87
2023/02/28 16:25:14;;;;;;;14.33;7.90;;;;;;;;;;4737161;30;20215;-87
2023/02/28 16:28:32;;;;;;;11.60;7.20;;;;;;;;;;4725329;30;20188;-90
2023/02/28 16:31:38;;;;;;;15.93;9.27;;;;;;;;;;4734545;30;20215;-87
2023/02/28 16:34:43;;;;;;;14.93;9.47;;;;;;;;;;4734529;30;20187;-87
2023/02/28 16:37:48;;;;;;;15.23;8.93;;;;;;;;;;4734328;30;20191;-87
2023/02/28 16:40:56;;;;;;;13.40;9.40;;;;;;;;;;4733905;30;20190;-86
2023/02/28 16:44:01;;;;;;;14.37;9.10;;;;;;;;;;4735042;30;20203;-87
2023/02/28 16:47:05;;;;;;;15.13;7.87;;;;;;;;;;4734119;30;20219;-86
2023/02/28 16:50:15;;;;;;;9.90;6.80;;;;;;;;;;4743963;30;20227;-87
2023/02/28 16:53:20;;;;;;;14.17;8.60;;;;;;;;;;4746820;30;20192;-87
2023/02/28 16:56:26;;;;;;;11.10;7.07;;;;;;;;;;4733916;30;20206;-87
2023/02/28 16:59:30;;;;;;;16.90;7.67;;;;;;;;;;4734326;30;20318;-87
2023/02/28 17:02:35;;;;;;;13.37;7.87;;;;;;;;;;4733538;30;20187;-87
2023/02/28 17:05:39;;;;;;;12.33;7.73;;;;;;;;;;4734064;30;20207;-87
2023/02/28 17:08:44;;;;;;;13.10;7.90;;;;;;;;;;4733495;30;20223;-87
2023/02/28 17:11:48;;;;;;;12.83;8.13;;;;;;;;;;4734009;30;20569;-87
2023/02/28 17:14:52;;;;;;;11.30;8.43;;;;;;;;;;4744163;30;20537;-87
2023/02/28 17:17:57;;;;;;;15.70;8.50;;;;;;;;;;4734195;30;20868;-88
2023/02/28 17:21:01;;;;;;;12.70;8.50;;;;;;;;;;4723699;30;20613;-87
2023/02/28 17:24:05;;;;;;;12.93;8.63;;;;;;;;;;4733850;30;20617;-87
2023/02/28 17:27:12;;;;;;;11.47;8.13;;;;;;;;;;4733746;30;20613;-87
2023/02/28 17:30:20;;;;;;;14.70;8.83;;;;;;;;;;4734310;30;20640;-87
2023/02/28 17:33:24;;;;;;;18.23;8.37;;;;;;;;;;4734201;30;20609;-87
2023/02/28 17:36:29;;;;;;;12.57;8.37;;;;;;;;;;4732913;30;20565;-87
2023/02/28 17:39:33;;;;;;;12.73;8.27;;;;;;;;;;4743553;30;20641;-87
2023/02/28 17:42:37;;;;;;;17.53;8.63;;;;;;;;;;4733697;30;20573;-87
2023/02/28 17:59:55;;;;;;;13.40;8.43;;;;;;;;;;4717897;30;20651;-87
2023/02/28 18:03:00;;;;;;;14.70;8.93;;;;;;;;;;4706659;30;20630;-87
2023/02/28 18:06:05;;;;;;;15.47;8.87;;;;;;;;;;4706771;30;20623;-87
2023/02/28 18:09:10;;;;;;;15.03;8.77;;;;;;;;;;4706770;30;20631;-87
2023/02/28 18:12:14;;;;;;;12.97;8.40;;;;;;;;;;4706425;30;20579;-87
2023/02/28 18:15:20;;;;;;;12.77;8.93;;;;;;;;;;4696187;30;20626;-87
2023/02/28 18:18:25;;;;;;;14.97;9.80;;;;;;;;;;4706256;30;20651;-87
2023/02/28 18:21:29;;;;;;;14.60;9.20;;;;;;;;;;4706730;30;20567;-89
2023/02/28 18:24:35;;;;;;;15.30;9.33;;;;;;;;;;4731736;30;20648;-87
2023/02/28 18:27:39;;;;;;;15.33;9.90;;;;;;;;;;4732452;30;20953;-87
2023/02/28 18:30:43;;;;;;;15.80;9.60;;;;;;;;;;4732519;30;20574;-87
2023/02/28 18:33:52;;;;;;;17.03;9.60;;;;;;;;;;4734263;30;20932;-86
2023/02/28 18:36:56;;;;;;;23.73;12.70;;;;;;;;;;4732561;30;20562;-87
2023/02/28 18:40:00;;;;;;;16.30;10.27;;;;;;;;;;4732962;30;20640;-87
2023/02/28 18:43:05;;;;;;;22.07;12.30;;;;;;;;;;4732491;30;20578;-87
2023/02/28 18:46:14;;;;;;;22.93;10.00;;;;;;;;;;4732285;30;20574;-87
2023/02/28 18:49:18;;;;;;;15.80;9.53;;;;;;;;;;4732730;30;20994;-87
2023/02/28 18:52:22;;;;;;;14.30;8.60;;;;;;;;;;4732358;30;20570;-87
2023/02/28 18:55:27;;;;;;;13.43;8.73;;;;;;;;;;4732342;30;20566;-87
2023/02/28 18:58:32;;;;;;;18.27;9.67;;;;;;;;;;4736576;30;20667;-86
2023/02/28 19:01:36;;;;;;;17.80;10.17;;;;;;;;;;4731973;30;20574;-87
2023/02/28 19:04:40;;;;;;;16.07;10.17;;;;;;;;;;4746147;30;20577;-87
2023/02/28 19:07:48;;;;;;;13.57;9.70;;;;;;;;;;4746031;30;21048;-87
2023/02/28 19:10:52;;;;;;;14.23;9.60;;;;;;;;;;4753888;30;20576;-87
2023/02/28 19:13:56;;;;;;;15.87;10.13;;;;;;;;;;4754492;30;20568;-87
2023/02/28 19:17:00;;;;;;;17.27;10.17;;;;;;;;;;4753434;30;20571;-87
2023/02/28 19:20:05;;;;;;;15.80;9.37;;;;;;;;;;4753553;30;20655;-87
2023/02/28 19:23:11;;;;;;;16.60;9.77;;;;;;;;;;4758489;30;20564;-87
2023/02/28 19:26:22;;;;;;;16.53;9.47;;;;;;;;;;4758530;30;20573;-86
2023/02/28 19:29:26;;;;;;;15.37;10.10;;;;;;;;;;4756025;30;20632;-87
2023/02/28 19:32:31;;;;;;;16.17;10.43;;;;;;;;;;4745796;30;20571;-87
2023/02/28 19:35:39;;;;;;;13.13;9.53;;;;;;;;;;4755409;30;20577;-87
2023/02/28 19:38:44;;;;;;;15.83;10.20;;;;;;;;;;4755258;30;20631;-86
2023/02/28 19:41:48;;;;;;;20.97;11.37;;;;;;;;;;4756012;30;20949;-87
2023/02/28 19:44:52;;;;;;;17.03;11.37;;;;;;;;;;4755490;30;20992;-87
2023/02/28 19:47:56;;;;;;;21.10;11.37;;;;;;;;;;4755840;30;20671;-87
2023/02/28 19:51:03;;;;;;;18.37;11.03;;;;;;;;;;4746461;30;20595;-87
2023/02/28 19:54:08;;;;;;;17.27;11.07;;;;;;;;;;4760089;30;20614;-87